createdAt,value
2018-02-27T00:02:15.104Z,13.87
2018-02-27T00:04:43.700Z,15.93
2018-02-27T00:07:12.252Z,18.00
2018-02-27T00:09:40.808Z,14.40
2018-02-27T00:12:09.504Z,22.50
2018-02-27T00:14:38.052Z,19.37
2018-02-27T00:17:06.816Z,19.13
2018-02-27T00:19:36.423Z,16.67
2018-02-27T00:22:05.014Z,18.90
2018-02-27T00:24:33.675Z,19.17
2018-02-27T00:27:02.554Z,21.07
2018-02-27T00:29:31.101Z,20.40
2018-02-27T00:32:00.525Z,21.60
2018-02-27T00:34:30.142Z,22.53
2018-02-27T00:36:58.868Z,22.43
2018-02-27T00:39:27.442Z,29.67
2018-02-27T00:41:56.399Z,56.10
2018-02-27T00:44:25.120Z,36.93
2018-02-27T00:46:53.759Z,26.67
2018-02-27T00:49:22.493Z,24.77
2018-02-27T00:51:51.146Z,26.70
2018-02-27T00:54:19.766Z,22.40
2018-02-27T00:56:48.356Z,18.40
2018-02-27T00:59:16.917Z,19.37
2018-02-27T01:01:45.615Z,18.53
2018-02-27T01:04:14.301Z,19.10
2018-02-27T01:06:43.047Z,14.30
2018-02-27T01:09:12.497Z,14.93
2018-02-27T01:11:41.180Z,13.37
2018-02-27T01:14:09.747Z,15.07
2018-02-27T01:16:38.454Z,17.93
2018-02-27T01:19:07.337Z,17.20
2018-02-27T01:21:36.025Z,17.97
2018-02-27T01:24:04.610Z,22.37
2018-02-27T01:26:33.499Z,13.93
2018-02-27T01:29:02.037Z,14.00
2018-02-27T01:31:30.727Z,15.07
2018-02-27T01:33:59.620Z,18.10
2018-02-27T01:36:28.165Z,16.10
2018-02-27T01:38:56.716Z,17.00
2018-02-27T01:41:25.510Z,17.93
2018-02-27T01:43:54.054Z,18.00
2018-02-27T01:46:22.597Z,18.10
2018-02-27T01:48:51.188Z,18.73
2018-02-27T01:51:21.245Z,16.13
2018-02-27T01:53:49.788Z,19.60
2018-02-27T01:56:18.600Z,18.00
2018-02-27T01:58:47.940Z,16.67
2018-02-27T02:01:16.642Z,17.07
2018-02-27T02:03:45.482Z,17.93
2018-02-27T02:06:14.212Z,19.90
2018-02-27T02:08:42.755Z,16.23
2018-02-27T02:11:11.493Z,19.87
2018-02-27T02:13:40.040Z,19.30
2018-02-27T02:16:08.742Z,19.90
2018-02-27T02:18:37.537Z,18.47
2018-02-27T02:21:06.230Z,18.00
2018-02-27T02:23:34.817Z,20.13
2018-02-27T02:26:04.006Z,21.43
2018-02-27T02:31:06.096Z,21.73
2018-02-27T02:33:34.650Z,21.97
2018-02-27T02:36:03.358Z,22.93
2018-02-27T02:38:32.253Z,24.67
2018-02-27T02:41:00.942Z,24.13
2018-02-27T02:43:29.509Z,19.80
2018-02-27T02:45:58.309Z,18.50
2018-02-27T02:48:26.871Z,19.60
2018-02-27T02:50:55.421Z,24.40
2018-02-27T02:53:25.961Z,30.93
2018-02-27T02:55:54.688Z,27.37
2018-02-27T02:58:23.321Z,26.40
2018-02-27T03:00:52.882Z,22.93
2018-02-27T03:03:21.532Z,22.13
2018-02-27T03:05:50.255Z,23.53
2018-02-27T03:08:19.346Z,55.73
2018-02-27T03:10:48.081Z,24.27
2018-02-27T03:13:17.423Z,20.43
2018-02-27T03:15:46.270Z,20.27
2018-02-27T03:18:15.734Z,23.20
2018-02-27T03:20:44.351Z,20.57
2018-02-27T03:23:13.920Z,17.63
2018-02-27T03:25:42.605Z,16.27
2018-02-27T03:28:11.233Z,15.40
2018-02-27T03:30:40.790Z,16.67
2018-02-27T03:33:09.443Z,13.73
2018-02-27T03:35:39.036Z,15.90
2018-02-27T03:38:08.799Z,13.23
2018-02-27T03:40:38.308Z,14.93
2018-02-27T03:43:06.993Z,14.67
2018-02-27T03:45:36.086Z,41.53
2018-02-27T03:48:04.668Z,39.10
2018-02-27T03:50:33.358Z,62.67
2018-02-27T03:53:01.960Z,146.60
2018-02-27T03:55:30.729Z,99.30
2018-02-27T03:57:59.370Z,85.33
2018-02-27T04:00:28.102Z,49.77
2018-02-27T04:02:56.788Z,16.07
2018-02-27T04:05:25.377Z,11.63
2018-02-27T04:07:54.056Z,14.73
2018-02-27T04:10:22.746Z,11.63
2018-02-27T04:12:51.432Z,12.63
2018-02-27T04:15:20.167Z,30.30
2018-02-27T04:17:49.615Z,20.33
2018-02-27T04:20:18.253Z,13.47
2018-02-27T04:22:47.797Z,12.00
2018-02-27T04:25:16.497Z,11.07
2018-02-27T04:27:45.074Z,10.37
2018-02-27T04:30:13.667Z,17.03
2018-02-27T04:32:42.235Z,40.43
2018-02-27T04:35:10.834Z,20.00
2018-02-27T04:37:39.677Z,53.87
2018-02-27T04:40:08.402Z,21.43
2018-02-27T04:42:37.062Z,18.40
2018-02-27T04:45:05.889Z,18.57
2018-02-27T04:47:34.464Z,52.47
2018-02-27T04:50:03.147Z,54.40
2018-02-27T04:52:32.307Z,59.83
2018-02-27T04:55:00.858Z,83.33
2018-02-27T04:57:29.620Z,62.43
2018-02-27T04:59:58.359Z,60.77
2018-02-27T05:02:27.092Z,31.63
2018-02-27T05:04:55.663Z,33.10
2018-02-27T05:07:24.737Z,21.70
2018-02-27T05:09:53.456Z,20.87
2018-02-27T05:12:22.122Z,27.50
2018-02-27T05:14:50.890Z,41.73
2018-02-27T05:17:19.613Z,23.63
2018-02-27T05:19:48.298Z,22.80
2018-02-27T05:22:16.989Z,18.23
2018-02-27T05:24:45.528Z,21.90
2018-02-27T05:27:14.084Z,18.50
2018-02-27T05:29:42.824Z,18.47
2018-02-27T05:32:11.392Z,13.97
2018-02-27T05:34:39.973Z,17.00
2018-02-27T05:37:08.567Z,21.60
2018-02-27T05:39:37.117Z,19.10
2018-02-27T05:42:05.660Z,16.00
2018-02-27T05:44:35.031Z,19.47
2018-02-27T05:47:03.576Z,14.83
2018-02-27T05:49:32.128Z,16.33
2018-02-27T05:52:00.716Z,17.70
2018-02-27T05:54:30.765Z,20.13
2018-02-27T05:56:59.311Z,15.47
2018-02-27T05:59:28.682Z,17.43
2018-02-27T06:01:57.225Z,11.50
2018-02-27T06:04:25.768Z,25.63
2018-02-27T06:06:55.592Z,20.10
2018-02-27T06:09:24.907Z,18.97
2018-02-27T06:11:54.277Z,15.37
2018-02-27T06:14:22.824Z,18.90
2018-02-27T06:16:51.406Z,78.20
2018-02-27T06:19:20.012Z,33.43
2018-02-27T06:21:48.566Z,19.30
2018-02-27T06:24:17.116Z,18.67
2018-02-27T06:26:46.127Z,19.27
2018-02-27T06:29:14.673Z,13.23
2018-02-27T06:31:43.977Z,13.07
2018-02-27T06:34:13.526Z,18.50
2018-02-27T06:36:42.069Z,12.77
2018-02-27T06:39:11.377Z,16.83
2018-02-27T06:41:40.073Z,15.73
2018-02-27T06:44:08.612Z,13.63
2018-02-27T06:46:37.160Z,14.83
2018-02-27T06:49:05.753Z,16.80
2018-02-27T06:51:35.104Z,14.53
2018-02-27T06:54:04.428Z,16.60
2018-02-27T06:56:33.065Z,13.67
2018-02-27T06:59:01.615Z,15.30
2018-02-27T07:01:30.214Z,15.77
2018-02-27T07:03:58.801Z,18.23
2018-02-27T07:06:27.349Z,16.80
2018-02-27T07:08:55.893Z,20.13
2018-02-27T07:11:25.356Z,18.17
2018-02-27T07:13:53.901Z,15.93
2018-02-27T07:16:22.448Z,19.87
2018-02-27T07:18:51.361Z,15.60
2018-02-27T07:21:20.684Z,11.80
2018-02-27T07:23:49.241Z,18.30
2018-02-27T07:26:18.617Z,27.07
2018-02-27T07:28:47.170Z,23.27
2018-02-27T07:31:15.716Z,30.03
2018-02-27T07:33:45.081Z,16.47
2018-02-27T07:36:13.648Z,17.17
2018-02-27T07:38:42.204Z,47.40
2018-02-27T07:41:11.019Z,33.03
2018-02-27T07:43:39.577Z,40.00
2018-02-27T07:46:08.126Z,35.93
2018-02-27T07:48:37.497Z,51.60
2018-02-27T07:51:06.042Z,34.17
2018-02-27T07:53:34.601Z,22.83
2018-02-27T07:56:04.923Z,17.00
2018-02-27T07:58:34.241Z,22.47
2018-02-27T08:01:02.866Z,21.43
2018-02-27T08:03:31.464Z,16.07
2018-02-27T08:06:00.014Z,13.97
2018-02-27T08:08:28.573Z,16.23
2018-02-27T08:10:57.395Z,16.93
2018-02-27T08:13:25.949Z,16.27
2018-02-27T08:15:54.506Z,17.80
2018-02-27T08:18:24.068Z,20.37
2018-02-27T08:20:52.625Z,18.90
2018-02-27T08:23:21.182Z,18.47
2018-02-27T08:25:50.701Z,14.93
2018-02-27T08:28:20.016Z,16.10
2018-02-27T08:30:48.576Z,21.60
2018-02-27T08:33:17.940Z,16.13
2018-02-27T08:35:46.493Z,17.90
2018-02-27T08:38:15.041Z,15.97
2018-02-27T08:40:43.885Z,18.27
2018-02-27T08:43:12.442Z,24.60
2018-02-27T08:45:40.996Z,23.37
2018-02-27T08:48:10.359Z,18.57
2018-02-27T08:50:38.909Z,20.87
2018-02-27T08:53:07.461Z,16.67
2018-02-27T08:55:36.969Z,16.63
2018-02-27T08:58:06.297Z,19.53
2018-02-27T09:00:34.855Z,22.07
2018-02-27T09:03:04.224Z,19.70
2018-02-27T09:05:32.794Z,17.13
2018-02-27T09:08:01.356Z,17.60
2018-02-27T09:10:29.958Z,18.30
2018-02-27T09:12:58.508Z,16.53
2018-02-27T09:15:27.073Z,20.63
2018-02-27T09:17:56.629Z,19.67
2018-02-27T09:20:25.221Z,18.03
2018-02-27T09:22:53.784Z,17.57
2018-02-27T09:25:22.583Z,16.37
2018-02-27T09:27:51.170Z,15.67
2018-02-27T09:30:19.734Z,14.77
2018-02-27T09:32:48.437Z,17.53
2018-02-27T09:35:16.986Z,23.03
2018-02-27T09:37:45.541Z,21.53
2018-02-27T09:40:14.151Z,25.33
2018-02-27T09:42:42.708Z,27.07
2018-02-27T09:45:11.260Z,22.87
2018-02-27T09:47:40.637Z,23.60
2018-02-27T09:50:09.196Z,22.53
2018-02-27T09:52:37.746Z,18.53
2018-02-27T09:55:06.494Z,23.20
2018-02-27T09:57:35.056Z,21.33
2018-02-27T10:00:03.654Z,18.73
2018-02-27T10:02:32.252Z,16.53
2018-02-27T10:05:00.826Z,19.20
2018-02-27T10:07:29.392Z,22.80
2018-02-27T10:09:58.755Z,24.30
2018-02-27T10:12:27.324Z,17.23
2018-02-27T10:14:56.646Z,20.07
2018-02-27T10:17:25.259Z,18.70
2018-02-27T10:19:53.832Z,25.10
2018-02-27T10:22:22.387Z,22.97
2018-02-27T10:24:51.017Z,33.07
2018-02-27T10:27:19.572Z,26.53
2018-02-27T10:29:48.128Z,21.90
2018-02-27T10:32:18.280Z,19.83
2018-02-27T10:34:47.953Z,18.00
2018-02-27T10:37:17.364Z,38.10
2018-02-27T10:39:45.972Z,20.27
2018-02-27T12:17:26.324Z,13.40
2018-02-27T12:19:55.048Z,18.83
2018-02-27T12:22:23.632Z,18.47
2018-02-27T12:24:52.417Z,17.47
2018-02-27T12:27:21.103Z,15.97
2018-02-27T12:29:49.789Z,15.90
2018-02-27T12:32:18.782Z,19.47
2018-02-27T12:34:48.290Z,15.80
2018-02-27T12:37:16.976Z,12.03
2018-02-27T12:39:45.708Z,15.83
2018-02-27T12:42:15.159Z,11.23
2018-02-27T12:44:43.794Z,16.60
2018-02-27T12:47:12.532Z,22.67
2018-02-27T12:49:41.120Z,21.43
2018-02-27T12:52:09.748Z,20.47
2018-02-27T12:54:39.117Z,15.47
2018-02-27T12:57:07.677Z,12.67
2018-02-27T12:59:36.378Z,18.60
2018-02-27T13:02:05.054Z,14.03
2018-02-27T13:04:33.749Z,16.43
2018-02-27T13:07:02.435Z,17.03
2018-02-27T13:09:31.116Z,17.27
2018-02-27T13:11:59.807Z,13.47
2018-02-27T13:14:28.493Z,17.50
2018-02-27T13:16:58.682Z,14.27
2018-02-27T13:19:27.270Z,16.63
2018-02-27T13:21:55.820Z,16.27
2018-02-27T13:24:24.417Z,20.23
2018-02-27T13:26:52.960Z,24.13
2018-02-27T13:29:21.508Z,23.07
2018-02-27T13:31:51.026Z,18.83
2018-02-27T13:34:19.564Z,19.43
2018-02-27T13:36:48.120Z,18.17
2018-02-27T13:39:16.896Z,16.90
2018-02-27T13:41:46.209Z,13.47
2018-02-27T13:44:15.519Z,14.80
2018-02-27T13:46:44.152Z,15.80
2018-02-27T13:49:12.725Z,16.23
2018-02-27T13:51:42.045Z,13.10
2018-02-27T13:54:10.741Z,18.87
2018-02-27T13:56:40.060Z,16.10
2018-02-27T13:59:08.605Z,17.07
2018-02-27T14:01:38.166Z,16.83
2018-02-27T14:04:06.715Z,13.57
2018-02-27T14:06:36.025Z,13.97
2018-02-27T14:09:05.049Z,14.93
2018-02-27T14:11:33.601Z,15.37
2018-02-27T14:14:02.046Z,14.93
2018-02-27T14:16:30.674Z,14.70
2018-02-27T14:18:59.104Z,17.40
2018-02-27T14:21:27.532Z,14.33
2018-02-27T14:23:56.196Z,21.20
2018-02-27T14:26:24.618Z,17.87
2018-02-27T14:28:53.038Z,18.10
2018-02-27T14:31:21.494Z,15.13
2018-02-27T14:33:49.936Z,16.53
2018-02-27T14:36:18.355Z,14.53
2018-02-27T14:38:47.672Z,16.30
2018-02-27T14:41:16.862Z,20.50
2018-02-27T14:43:46.048Z,17.37
2018-02-27T14:46:15.438Z,14.70
2018-02-27T14:48:44.631Z,15.60
2018-02-27T14:51:13.057Z,17.30
2018-02-27T14:53:41.526Z,14.83
2018-02-27T14:56:10.711Z,16.47
2018-02-27T14:58:39.907Z,18.90
2018-02-27T15:01:08.474Z,44.80
2018-02-27T15:03:36.906Z,37.00
2018-02-27T15:06:05.331Z,60.03
2018-02-27T15:08:34.174Z,35.23
2018-02-27T15:11:02.608Z,23.47
2018-02-27T15:13:31.042Z,467.87
2018-02-27T15:15:59.831Z,349.03
2018-02-27T15:18:28.259Z,547.10
2018-02-27T15:20:56.703Z,304.53
2018-02-27T15:23:25.470Z,566.43
2018-02-27T15:25:53.908Z,180.50
2018-02-27T15:28:22.342Z,171.03
2018-02-27T15:30:50.853Z,181.00
2018-02-27T15:33:19.279Z,57.83
2018-02-27T15:35:47.709Z,374.77
2018-02-27T15:38:17.252Z,295.37
2018-02-27T15:40:45.683Z,191.10
2018-02-27T15:43:14.114Z,341.53
2018-02-27T15:45:42.694Z,333.30
2018-02-27T15:48:11.116Z,135.37
2018-02-27T15:50:39.546Z,285.13
2018-02-27T15:53:08.024Z,206.20
2018-02-27T15:55:36.532Z,172.60
2018-02-27T15:58:04.962Z,232.57
2018-02-27T16:00:34.398Z,190.00
2018-02-27T16:03:02.831Z,268.20
2018-02-27T16:05:31.275Z,165.30
2018-02-27T16:07:59.746Z,153.87
2018-02-27T16:10:28.171Z,634.10
2018-02-27T16:12:56.675Z,1116.27
2018-02-27T16:15:25.927Z,1030.80
2018-02-27T16:17:54.359Z,1665.43
2018-02-27T16:20:23.567Z,1413.07
2018-02-27T16:22:52.301Z,1453.83
2018-02-27T16:25:20.763Z,957.83
2018-02-27T16:27:49.204Z,1169.40
2018-02-27T16:30:18.451Z,692.50
2018-02-27T16:32:46.879Z,607.90
2018-02-27T16:35:15.311Z,831.67
2018-02-27T16:37:43.787Z,652.73
2018-02-27T16:40:12.219Z,546.77
2018-02-27T16:42:40.655Z,384.63
2018-02-27T16:45:11.022Z,378.13
2018-02-27T16:47:39.468Z,413.70
2018-02-27T16:50:08.659Z,340.63
2018-02-27T16:52:37.382Z,1437.37
2018-02-27T16:55:05.815Z,1521.97
2018-02-27T16:57:34.251Z,1162.13
2018-02-27T17:00:02.728Z,802.07
2018-02-27T17:02:31.165Z,405.90
2018-02-27T17:04:59.596Z,550.30
2018-02-27T17:07:28.068Z,640.73
2018-02-27T17:09:56.495Z,607.80
2018-02-27T17:12:25.105Z,470.23
2018-02-27T17:14:53.745Z,449.03
2018-02-27T17:17:22.171Z,159.67
2018-02-27T17:19:51.397Z,39.13
2018-02-27T17:22:19.959Z,40.63
2018-02-27T17:24:48.390Z,34.17
2018-02-27T17:27:16.811Z,43.23
2018-02-27T17:29:46.134Z,92.60
2018-02-27T17:32:14.565Z,88.73
2018-02-27T17:34:43.008Z,54.77
2018-02-27T17:37:11.795Z,60.80
2018-02-27T17:39:40.227Z,177.80
2018-02-27T17:42:09.427Z,327.40
2018-02-27T17:44:39.111Z,383.90
2018-02-27T17:47:07.565Z,214.00
2018-02-27T17:49:35.988Z,57.70
2018-02-27T17:52:05.549Z,147.97
2018-02-27T17:54:34.003Z,137.47
2018-02-27T17:57:02.436Z,307.43
2018-02-27T17:59:31.016Z,266.20
2018-02-27T18:01:59.447Z,131.00
2018-02-27T18:04:27.870Z,149.57
2018-02-27T18:06:56.526Z,69.93
2018-02-27T18:09:24.951Z,36.93
2018-02-27T18:11:54.162Z,33.27
2018-02-27T18:14:23.459Z,40.87
2018-02-27T18:16:51.889Z,36.63
2018-02-27T18:19:20.339Z,29.57
2018-02-27T18:21:49.575Z,28.10
2018-02-27T18:24:18.001Z,21.70
2018-02-27T18:26:47.200Z,21.27
2018-02-27T18:29:16.435Z,19.37
2018-02-27T18:31:44.864Z,29.83
2018-02-27T18:34:13.287Z,23.90
2018-02-27T18:36:42.082Z,23.57
2018-02-27T18:39:10.503Z,26.43
2018-02-27T18:41:38.962Z,19.83
2018-02-27T18:44:07.492Z,23.53
2018-02-27T18:46:35.915Z,22.53
2018-02-27T18:49:04.347Z,29.10
2018-02-27T18:51:33.069Z,29.97
2018-02-27T18:54:01.934Z,24.27
2018-02-27T19:14:49.923Z,30.37
2018-02-27T19:17:18.599Z,25.57
2018-02-27T19:19:47.031Z,31.13
2018-02-27T19:22:15.466Z,28.73
2018-02-27T19:24:44.166Z,29.93
2018-02-27T19:27:12.590Z,37.63
2018-02-27T19:29:41.019Z,45.60
2018-02-27T19:32:09.498Z,91.90
2018-02-27T19:34:37.927Z,60.13
2018-02-27T19:37:06.355Z,64.63
2018-02-27T19:39:34.833Z,50.97
2018-02-27T19:42:03.262Z,45.23
2018-02-27T19:44:31.682Z,44.10
2018-02-27T19:47:00.914Z,37.83
2018-02-27T19:49:29.335Z,41.47
2018-02-27T19:51:57.758Z,38.53
2018-02-27T19:54:26.441Z,34.37
2018-02-27T19:56:54.891Z,26.80
2018-02-27T19:59:24.084Z,32.67
2018-02-27T20:01:53.535Z,38.97
2018-02-27T20:04:21.961Z,133.00
2018-02-27T20:06:50.390Z,46.73
2018-02-27T20:09:18.867Z,35.93
2018-02-27T20:11:47.291Z,26.47
2018-02-27T20:14:21.166Z,38.00
2018-02-27T20:16:49.615Z,27.27
2018-02-27T20:19:18.039Z,28.33
2018-02-27T20:21:48.538Z,24.33
2018-02-27T20:24:17.849Z,25.97
2018-02-27T20:26:46.298Z,28.50
2018-02-27T20:29:21.162Z,43.47
2018-02-27T20:31:49.607Z,37.73
2018-02-27T20:34:18.799Z,32.40
2018-02-27T20:36:48.250Z,45.57
2018-02-27T20:39:22.192Z,37.17
2018-02-27T20:41:50.786Z,32.53
2018-02-27T20:44:19.219Z,43.47
2018-02-27T20:46:47.654Z,41.27
2018-02-27T20:49:17.085Z,35.17
2018-02-27T20:51:45.514Z,42.20
2018-02-27T20:54:13.929Z,42.77
2018-02-27T20:56:42.415Z,28.27
2018-02-27T20:59:10.846Z,38.47
2018-02-27T21:01:39.290Z,31.83
2018-02-27T21:04:07.759Z,42.03
2018-02-27T21:06:36.187Z,39.93
2018-02-27T21:09:04.694Z,35.13
2018-02-27T21:11:33.174Z,35.50
2018-02-27T21:14:02.382Z,34.17
2018-02-27T21:16:31.574Z,34.67
2018-02-27T21:19:00.815Z,29.33
2018-02-27T21:21:29.239Z,32.77
2018-02-27T21:23:57.699Z,33.00
2018-02-27T21:26:26.352Z,34.20
2018-02-27T21:28:54.786Z,31.60
2018-02-27T21:31:23.213Z,33.67
2018-02-27T21:33:51.674Z,30.50
2018-02-27T21:36:20.866Z,28.90
2018-02-27T21:38:50.064Z,29.90
2018-02-27T21:41:18.712Z,33.47
2018-02-27T21:43:47.139Z,31.03
2018-02-27T21:46:15.631Z,33.53
2018-02-27T21:48:44.831Z,26.07
2018-02-27T21:51:13.279Z,26.47
2018-02-27T21:53:42.484Z,26.33
2018-02-27T21:56:11.732Z,28.07
2018-02-27T21:58:40.158Z,23.97
2018-02-27T22:01:09.364Z,27.50
2018-02-27T22:03:38.795Z,27.40
2018-02-27T22:06:07.220Z,24.87
2018-02-27T22:08:36.425Z,31.47
2018-02-27T22:11:06.700Z,27.00
2018-02-27T22:13:35.142Z,22.33
2018-02-27T22:16:04.374Z,19.87
2018-02-27T22:18:32.851Z,24.60
2018-02-27T22:21:01.271Z,19.80
2018-02-27T22:23:29.700Z,25.27
2018-02-27T22:25:58.394Z,24.03
2018-02-27T22:28:26.819Z,24.00
2018-02-27T22:30:55.243Z,24.33
2018-02-27T22:33:23.702Z,22.20
2018-02-27T22:35:52.903Z,22.27
2018-02-27T22:38:22.094Z,26.80
2018-02-27T22:40:51.331Z,26.27
2018-02-27T22:43:20.522Z,26.50
2018-02-27T22:45:48.950Z,25.77
2018-02-27T22:48:17.770Z,24.50
2018-02-27T22:50:46.965Z,25.37
2018-02-27T22:53:16.161Z,20.97
2018-02-27T22:55:45.406Z,23.30
2018-02-27T22:58:13.830Z,26.93
2018-02-27T23:00:43.019Z,25.73
2018-02-27T23:03:11.854Z,27.23
2018-02-27T23:05:40.280Z,24.33
2018-02-27T23:08:08.698Z,27.90
2018-02-27T23:10:38.319Z,22.67
2018-02-27T23:13:06.759Z,27.90
2018-02-27T23:15:35.785Z,23.60
2018-02-27T23:18:04.378Z,21.17
2018-02-27T23:20:32.811Z,26.07
2018-02-27T23:23:01.240Z,65.80
2018-02-27T23:25:48.255Z,172.83
2018-02-27T23:28:18.215Z,636.20
2018-02-27T23:30:47.098Z,215.63
2018-02-27T23:33:31.902Z,46.10
2018-02-27T23:36:01.095Z,31.27
2018-02-27T23:38:30.294Z,21.50
2018-02-27T23:40:59.834Z,19.80
2018-02-27T23:43:28.258Z,24.13
2018-02-27T23:45:56.690Z,21.07
2018-02-27T23:48:25.474Z,24.07
2018-02-27T23:50:53.899Z,28.00
2018-02-27T23:53:22.334Z,22.67
2018-02-27T23:55:51.221Z,23.93
2018-02-27T23:58:19.780Z,24.13
